Time;durP1;ratioP1;P1;durP2;ratioP2;P2;SDS_P1;SDS_P2;PMS_P1;PMS_P2;Temp;Humidity;BMP_temperature;BMP_pressure;BME280_temperature;BME280_humidity;BME280_pressure;Samples;Min_cycle;Max_cycle;Signal;HPM_P1;HPM_P2
2023/09/13 00:01:36;;;;;;;1.50;1.40;;;19.90;88.70;;;;;;5071949;28;20041;-76
2023/09/13 00:04:02;;;;;;;1.75;1.50;;;19.90;88.70;;;;;;5071394;28;20097;-77
2023/09/13 00:06:28;;;;;;;1.70;1.33;;;19.90;88.70;;;;;;5072971;28;20047;-76
2023/09/13 00:08:54;;;;;;;1.92;1.30;;;19.80;88.70;;;;;;5038388;28;20037;-76
2023/09/13 00:11:19;;;;;;;1.63;1.20;;;19.90;88.90;;;;;;5054388;28;20120;-76
2023/09/13 00:13:45;;;;;;;1.60;1.27;;;19.80;88.80;;;;;;5074336;28;20459;-76
2023/09/13 00:16:11;;;;;;;1.92;1.23;;;19.80;88.90;;;;;;5038453;28;20544;-77
2023/09/13 00:18:37;;;;;;;1.25;1.10;;;19.80;88.90;;;;;;5054540;28;20106;-77
2023/09/13 00:21:03;;;;;;;1.23;1.08;;;19.80;88.90;;;;;;5055980;28;20036;-76
2023/09/13 00:23:28;;;;;;;1.48;1.30;;;19.80;89.00;;;;;;5055225;28;20110;-77
2023/09/13 00:25:54;;;;;;;2.00;1.50;;;19.80;89.00;;;;;;5071372;28;20051;-76
2023/09/13 00:28:20;;;;;;;3.05;1.90;;;19.80;89.00;;;;;;5054067;28;20131;-76
2023/09/13 00:30:45;;;;;;;3.15;1.90;;;19.80;89.10;;;;;;5073910;28;20140;-78
2023/09/13 00:33:11;;;;;;;2.85;1.70;;;19.80;89.00;;;;;;5054562;28;20098;-78
2023/09/13 00:35:37;;;;;;;1.70;1.20;;;19.70;89.00;;;;;;5054132;28;20064;-77
2023/09/13 00:38:03;;;;;;;1.77;1.52;;;19.80;89.10;;;;;;5074284;28;20059;-78
2023/09/13 00:40:28;;;;;;;1.85;1.33;;;19.80;89.10;;;;;;5071309;28;20064;-78
2023/09/13 00:42:54;;;;;;;2.10;1.42;;;19.70;89.20;;;;;;5073281;28;20063;-77
2023/09/13 00:45:20;;;;;;;1.88;1.50;;;19.70;89.20;;;;;;5072201;28;20049;-78
2023/09/13 00:47:47;;;;;;;2.10;1.33;;;19.70;89.30;;;;;;5071764;28;20090;-77
2023/09/13 00:50:15;;;;;;;1.75;1.30;;;19.70;89.30;;;;;;5071379;28;20170;-77
2023/09/13 00:52:43;;;;;;;2.05;1.40;;;19.70;89.30;;;;;;5070748;28;20041;-77
2023/09/13 00:55:11;;;;;;;1.77;1.27;;;19.70;89.30;;;;;;5068924;28;20068;-77
2023/09/13 00:57:37;;;;;;;1.23;1.13;;;19.70;89.40;;;;;;5054026;28;20056;-77
2023/09/13 01:00:10;;;;;;;1.70;1.40;;;19.60;89.40;;;;;;5072073;28;20136;-77
2023/09/13 01:02:39;;;;;;;1.65;1.40;;;19.70;89.60;;;;;;5073269;28;20040;-77
2023/09/13 01:05:10;;;;;;;2.10;1.55;;;19.70;89.60;;;;;;5071605;28;20132;-77
2023/09/13 01:07:38;;;;;;;2.58;1.90;;;19.70;89.90;;;;;;5071875;28;20041;-77
2023/09/13 01:10:04;;;;;;;2.30;1.80;;;19.70;89.70;;;;;;5071250;28;20048;-77
2023/09/13 01:12:31;;;;;;;2.72;1.70;;;19.70;89.60;;;;;;5072921;28;20036;-77
2023/09/13 01:14:57;;;;;;;1.83;1.48;;;19.60;89.60;;;;;;5053567;28;20502;-78
2023/09/13 01:17:39;;;;;;;2.13;1.63;;;19.60;89.60;;;;;;5038452;28;20028;-78
2023/09/13 01:20:25;;;;;;;1.95;1.50;;;19.70;89.60;;;;;;5039116;28;20036;-78
2023/09/13 01:23:09;;;;;;;1.67;1.30;;;19.70;89.60;;;;;;5053871;28;20040;-79
2023/09/13 01:25:58;;;;;;;2.13;1.30;;;19.70;89.60;;;;;;5055141;28;20059;-79
2023/09/13 01:28:34;;;;;;;2.67;1.73;;;19.60;89.60;;;;;;5072924;28;20044;-79
2023/09/13 01:31:04;;;;;;;1.33;1.23;;;19.70;89.70;;;;;;5069302;28;20090;-79
2023/09/13 01:33:30;;;;;;;1.70;1.40;;;19.60;89.60;;;;;;5070505;28;20048;-80
2023/09/13 01:35:56;;;;;;;2.65;1.73;;;19.60;89.60;;;;;;5069605;28;20045;-79
2023/09/13 01:38:22;;;;;;;2.28;1.65;;;19.70;89.70;;;;;;5054259;28;20036;-78
2023/09/13 01:40:50;;;;;;;2.20;1.60;;;19.70;89.60;;;;;;5037068;28;20043;-79
2023/09/13 01:43:18;;;;;;;2.28;1.60;;;19.70;89.60;;;;;;5037178;28;20489;-79
2023/09/13 01:45:44;;;;;;;1.90;1.40;;;19.70;89.60;;;;;;5068106;28;20132;-79
2023/09/13 01:48:12;;;;;;;1.92;1.40;;;19.70;89.60;;;;;;5072587;28;20067;-79
2023/09/13 01:50:44;;;;;;;2.83;2.00;;;19.70;89.60;;;;;;5070863;28;20087;-78
2023/09/13 01:53:10;;;;;;;1.27;1.15;;;19.70;89.60;;;;;;4998882;28;20124;-78
2023/09/13 01:55:36;;;;;;;1.83;1.40;;;19.70;89.60;;;;;;5034379;28;20205;-78
2023/09/13 01:58:02;;;;;;;1.80;1.50;;;19.70;89.70;;;;;;5017301;28;20040;-78
2023/09/13 02:00:28;;;;;;;1.67;1.30;;;19.70;89.80;;;;;;5033527;28;20045;-78
2023/09/13 02:02:53;;;;;;;1.88;1.42;;;19.70;89.90;;;;;;5017337;28;20379;-78
2023/09/13 02:05:19;;;;;;;1.55;1.27;;;19.70;89.90;;;;;;5033533;28;20539;-78
2023/09/13 02:07:45;;;;;;;2.38;1.70;;;19.70;89.80;;;;;;5017027;28;20049;-78
2023/09/13 02:10:10;;;;;;;1.75;1.30;;;19.70;89.90;;;;;;5033170;28;20041;-78
2023/09/13 02:12:36;;;;;;;3.22;2.00;;;19.70;89.90;;;;;;5049967;28;20043;-79
2023/09/13 02:15:02;;;;;;;2.70;1.90;;;19.70;89.90;;;;;;5050237;28;20067;-78
2023/09/13 02:17:30;;;;;;;4.75;2.70;;;19.70;89.90;;;;;;5048072;28;20044;-82
2023/09/13 02:19:56;;;;;;;2.63;1.90;;;19.70;89.90;;;;;;5074699;28;20048;-81
2023/09/13 02:22:22;;;;;;;2.45;1.77;;;19.70;89.90;;;;;;5042260;28;20132;-83
2023/09/13 02:24:47;;;;;;;2.15;1.60;;;19.60;89.90;;;;;;5072917;28;20482;-83
2023/09/13 02:27:13;;;;;;;3.28;1.98;;;19.60;90.00;;;;;;5037006;28;20051;-82
2023/09/13 02:29:38;;;;;;;2.33;1.65;;;19.60;90.00;;;;;;5052894;28;20041;-83
2023/09/13 02:32:04;;;;;;;2.13;1.40;;;19.50;90.10;;;;;;5071731;28;20476;-82
2023/09/13 02:34:30;;;;;;;3.03;1.60;;;19.60;90.10;;;;;;5053705;28;20051;-82
2023/09/13 02:36:56;;;;;;;2.47;1.80;;;19.60;90.10;;;;;;5036601;28;20036;-82
2023/09/13 02:39:34;;;;;;;2.72;1.60;;;19.60;90.10;;;;;;5052501;28;20122;-82
2023/09/13 02:42:01;;;;;;;3.30;1.67;;;19.60;90.10;;;;;;5052959;28;20040;-82
2023/09/13 02:44:26;;;;;;;2.63;1.77;;;19.60;90.10;;;;;;5071897;28;20037;-81
2023/09/13 02:46:52;;;;;;;2.13;1.70;;;19.60;90.10;;;;;;5052486;28;20406;-81
2023/09/13 02:49:18;;;;;;;2.97;1.90;;;19.60;90.10;;;;;;5070372;28;20124;-81
2023/09/13 02:51:45;;;;;;;2.22;1.58;;;19.60;90.10;;;;;;5069679;28;20053;-81
2023/09/13 02:54:11;;;;;;;3.25;1.55;;;19.60;90.20;;;;;;5071696;28;20560;-81
2023/09/13 02:56:40;;;;;;;2.53;1.70;;;19.60;90.20;;;;;;5052177;28;20037;-81
2023/09/13 02:59:06;;;;;;;2.00;1.40;;;19.60;90.20;;;;;;5052105;28;20517;-80
2023/09/13 03:01:31;;;;;;;1.52;1.20;;;19.60;90.20;;;;;;5053191;28;20040;-80
2023/09/13 03:03:57;;;;;;;2.15;1.50;;;19.50;90.20;;;;;;5036377;28;20039;-80
2023/09/13 03:06:23;;;;;;;2.28;1.67;;;19.60;90.20;;;;;;5072761;28;20033;-80
2023/09/13 03:08:48;;;;;;;3.65;1.70;;;19.60;90.20;;;;;;5056792;28;20037;-80
2023/09/13 03:11:15;;;;;;;2.45;1.60;;;19.50;90.20;;;;;;5055923;28;20094;-81
2023/09/13 03:13:42;;;;;;;2.38;1.70;;;19.60;90.20;;;;;;5056030;28;20059;-82
2023/09/13 03:16:16;;;;;;;4.38;2.40;;;19.50;90.20;;;;;;5071865;28;20040;-81
2023/09/13 03:18:43;;;;;;;3.50;2.28;;;19.50;90.30;;;;;;5054787;28;20048;-81
2023/09/13 03:21:10;;;;;;;4.00;2.25;;;19.50;90.30;;;;;;5055160;28;20041;-80
2023/09/13 03:23:38;;;;;;;2.95;2.03;;;19.50;90.30;;;;;;5056969;28;20051;-80
2023/09/13 03:26:20;;;;;;;3.65;2.40;;;19.40;90.30;;;;;;5075368;28;20580;-80
2023/09/13 03:28:49;;;;;;;3.75;2.47;;;19.50;90.40;;;;;;5074570;28;20510;-79
2023/09/13 03:31:17;;;;;;;4.57;2.85;;;19.50;90.40;;;;;;5074319;28;20128;-79
2023/09/13 03:33:45;;;;;;;4.25;2.75;;;19.50;90.40;;;;;;5039065;28;20075;-79
2023/09/13 03:36:12;;;;;;;5.60;3.30;;;19.40;90.40;;;;;;5038533;28;20511;-79
2023/09/13 03:38:40;;;;;;;3.50;2.42;;;19.50;90.40;;;;;;5073850;28;20143;-80
2023/09/13 03:41:08;;;;;;;5.07;2.50;;;19.40;90.40;;;;;;5073079;28;20063;-79
2023/09/13 03:43:34;;;;;;;3.88;2.65;;;19.40;90.40;;;;;;5072449;28;20433;-80
2023/09/13 03:46:00;;;;;;;4.18;2.63;;;19.40;90.40;;;;;;5055643;28;20110;-80
2023/09/13 03:48:25;;;;;;;4.72;2.70;;;19.40;90.40;;;;;;5054648;28;20494;-79
2023/09/13 03:50:51;;;;;;;5.13;3.05;;;19.40;90.40;;;;;;5073387;28;20041;-80
2023/09/13 03:53:17;;;;;;;3.78;2.53;;;19.40;90.40;;;;;;5055411;28;20041;-80
2023/09/13 03:55:43;;;;;;;4.78;2.75;;;19.40;90.50;;;;;;5074363;28;20066;-79
2023/09/13 03:58:09;;;;;;;5.03;3.22;;;19.40;90.50;;;;;;5056072;28;20036;-79
2023/09/13 04:00:36;;;;;;;5.18;3.00;;;19.40;90.50;;;;;;5055550;28;20036;-79
2023/09/13 04:03:02;;;;;;;5.70;3.33;;;19.40;90.50;;;;;;5071922;28;20072;-79
2023/09/13 04:05:29;;;;;;;3.85;2.75;;;19.40;90.50;;;;;;5071158;28;20139;-80
2023/09/13 04:07:55;;;;;;;3.55;2.45;;;19.40;90.50;;;;;;5074401;28;20033;-80
2023/09/13 04:10:21;;;;;;;3.97;2.55;;;19.40;90.50;;;;;;5055692;28;20051;-79
2023/09/13 04:12:47;;;;;;;4.00;2.40;;;19.40;90.50;;;;;;5055210;28;20032;-80
2023/09/13 04:15:13;;;;;;;5.85;3.35;;;19.40;90.50;;;;;;5069836;28;20036;-79
2023/09/13 04:17:39;;;;;;;4.88;3.03;;;19.40;90.50;;;;;;5073849;28;20367;-80
2023/09/13 04:20:05;;;;;;;4.78;2.97;;;19.40;90.50;;;;;;5071913;28;20076;-80
2023/09/13 04:22:32;;;;;;;4.32;2.85;;;19.40;90.50;;;;;;5054769;28;20044;-80
2023/09/13 04:24:57;;;;;;;5.38;2.95;;;19.40;90.50;;;;;;5039715;28;20444;-80
2023/09/13 04:27:24;;;;;;;4.85;2.90;;;19.40;90.60;;;;;;5074331;28;20049;-79
2023/09/13 04:29:54;;;;;;;5.25;2.90;;;19.40;90.60;;;;;;5071925;28;20135;-79
2023/09/13 04:32:20;;;;;;;4.60;2.73;;;19.40;90.60;;;;;;5071587;28;20074;-79
2023/09/13 04:34:46;;;;;;;4.90;3.10;;;19.40;90.60;;;;;;5074719;28;20028;-79
2023/09/13 04:37:12;;;;;;;5.65;3.15;;;19.40;90.60;;;;;;5072426;28;20095;-79
2023/09/13 04:39:38;;;;;;;5.05;3.22;;;19.30;90.60;;;;;;5074036;28;20127;-79
2023/09/13 04:42:05;;;;;;;6.03;3.55;;;19.40;90.60;;;;;;5054298;28;20131;-79
2023/09/13 04:44:31;;;;;;;7.47;4.60;;;19.40;90.70;;;;;;5069035;28;20600;-80
2023/09/13 04:46:59;;;;;;;9.15;5.05;;;19.40;90.70;;;;;;5073658;28;20033;-79
2023/09/13 04:49:25;;;;;;;7.55;4.47;;;19.30;90.70;;;;;;5038762;28;20123;-79
2023/09/13 04:51:52;;;;;;;5.40;3.20;;;19.30;90.70;;;;;;5073542;28;20502;-80
2023/09/13 04:54:18;;;;;;;4.93;3.25;;;19.20;90.70;;;;;;5070509;28;20036;-79
2023/09/13 04:56:44;;;;;;;6.05;3.22;;;19.20;90.80;;;;;;5056073;28;20486;-79
2023/09/13 04:59:10;;;;;;;5.32;3.22;;;19.20;90.80;;;;;;5072069;28;20167;-79
2023/09/13 05:01:36;;;;;;;5.65;3.05;;;19.20;90.80;;;;;;5054139;28;20083;-79
2023/09/13 05:04:01;;;;;;;5.30;3.10;;;19.20;90.90;;;;;;5073723;28;20490;-79
2023/09/13 05:06:27;;;;;;;9.50;4.95;;;19.00;90.80;;;;;;5080727;28;20044;-79
2023/09/13 05:08:53;;;;;;;5.13;3.47;;;19.10;90.90;;;;;;5065116;28;20037;-79
2023/09/13 05:11:19;;;;;;;4.85;2.95;;;19.10;90.90;;;;;;5081871;28;20550;-78
2023/09/13 05:13:47;;;;;;;7.60;4.38;;;19.10;90.90;;;;;;5089000;28;20039;-77
2023/09/13 05:16:14;;;;;;;6.22;3.40;;;19.10;90.90;;;;;;5089205;28;20029;-79
2023/09/13 05:18:40;;;;;;;8.63;4.90;;;19.10;90.90;;;;;;5091988;28;20051;-78
2023/09/13 05:21:05;;;;;;;7.80;4.43;;;19.00;90.90;;;;;;5091306;28;20028;-78
2023/09/13 05:23:31;;;;;;;6.50;3.92;;;19.00;90.90;;;;;;5090936;28;20054;-78
2023/09/13 05:25:57;;;;;;;5.07;3.20;;;19.00;90.90;;;;;;5091565;28;20454;-79
2023/09/13 05:28:24;;;;;;;3.97;2.58;;;19.00;90.90;;;;;;5085197;28;20040;-79
2023/09/13 05:30:49;;;;;;;6.10;3.35;;;19.00;91.00;;;;;;5090254;28;20117;-79
2023/09/13 05:33:15;;;;;;;4.57;2.95;;;19.00;91.00;;;;;;5071335;28;20580;-78
2023/09/13 05:35:41;;;;;;;4.88;2.72;;;19.00;91.00;;;;;;5087235;28;20049;-79
2023/09/13 05:38:06;;;;;;;6.22;3.33;;;19.00;91.00;;;;;;5085799;28;20032;-78
2023/09/13 05:40:32;;;;;;;6.13;3.45;;;19.10;91.00;;;;;;5090755;28;20040;-78
2023/09/13 05:42:58;;;;;;;5.30;3.13;;;19.00;91.00;;;;;;5092300;28;20111;-78
2023/09/13 05:45:24;;;;;;;7.95;4.03;;;19.10;91.00;;;;;;5094649;28;20060;-78
2023/09/13 05:47:50;;;;;;;6.97;4.13;;;19.00;91.00;;;;;;5094634;28;20044;-79
2023/09/13 05:50:16;;;;;;;7.45;4.55;;;19.00;90.90;;;;;;5095599;28;20940;-80
2023/09/13 05:52:43;;;;;;;6.85;3.70;;;18.90;90.90;;;;;;5095026;28;20060;-78
2023/09/13 05:55:09;;;;;;;6.28;3.97;;;19.00;91.00;;;;;;5093809;28;20044;-79
2023/09/13 05:57:35;;;;;;;9.05;4.35;;;18.90;91.00;;;;;;5094897;28;20078;-78
2023/09/13 06:00:01;;;;;;;5.90;3.70;;;19.00;91.00;;;;;;5096742;28;20053;-79
2023/09/13 06:02:27;;;;;;;7.05;4.15;;;18.90;91.00;;;;;;5096150;28;20028;-78
2023/09/13 06:04:52;;;;;;;8.38;4.97;;;19.00;91.00;;;;;;5096503;28;20057;-78
2023/09/13 06:07:18;;;;;;;6.03;3.63;;;19.00;91.00;;;;;;5093569;28;20865;-79
2023/09/13 06:09:44;;;;;;;6.20;3.78;;;19.00;90.90;;;;;;5094149;28;20048;-79
2023/09/13 06:12:09;;;;;;;7.40;4.20;;;19.00;91.00;;;;;;5093463;28;20036;-78
2023/09/13 06:14:36;;;;;;;6.60;3.72;;;19.00;91.00;;;;;;5092764;28;20040;-79
2023/09/13 06:17:02;;;;;;;6.80;4.05;;;19.00;91.00;;;;;;5089348;28;20025;-79
2023/09/13 06:19:28;;;;;;;6.50;3.33;;;18.90;91.00;;;;;;5083251;28;20052;-77
2023/09/13 06:21:54;;;;;;;8.13;4.43;;;18.90;91.30;;;;;;5075133;28;20046;-78
2023/09/13 06:24:20;;;;;;;7.78;4.45;;;18.90;91.00;;;;;;5088215;28;20139;-78
2023/09/13 06:26:46;;;;;;;5.90;3.60;;;19.00;91.00;;;;;;5089920;28;20044;-79
2023/09/13 06:29:12;;;;;;;6.18;3.47;;;19.00;91.00;;;;;;5082372;28;20049;-79
2023/09/13 06:31:38;;;;;;;8.80;4.68;;;19.00;91.00;;;;;;5084359;28;20100;-78
2023/09/13 06:34:04;;;;;;;7.32;4.05;;;19.00;91.00;;;;;;5068595;28;20040;-78
2023/09/13 06:36:29;;;;;;;7.50;4.38;;;19.00;91.00;;;;;;5085656;28;20142;-78
2023/09/13 06:38:55;;;;;;;8.50;4.50;;;19.10;91.00;;;;;;5085395;28;20091;-77
2023/09/13 06:41:21;;;;;;;6.15;4.07;;;19.00;91.00;;;;;;5091793;28;20803;-77
2023/09/13 06:43:47;;;;;;;5.80;3.75;;;19.10;91.00;;;;;;5098301;28;20055;-76
2023/09/13 06:46:13;;;;;;;8.30;4.18;;;19.10;91.00;;;;;;5095166;28;20064;-78
2023/09/13 06:48:38;;;;;;;5.88;3.55;;;19.20;91.10;;;;;;5093953;28;20025;-78
2023/09/13 06:51:04;;;;;;;6.10;3.55;;;19.10;91.00;;;;;;5076527;28;20037;-78
2023/09/13 06:53:30;;;;;;;7.03;4.05;;;19.10;91.10;;;;;;5096202;28;20068;-77
2023/09/13 06:55:56;;;;;;;9.13;5.03;;;19.10;91.10;;;;;;5076080;28;20031;-77
2023/09/13 06:58:22;;;;;;;6.07;3.50;;;19.10;91.00;;;;;;5098097;28;20025;-77
2023/09/13 07:00:48;;;;;;;6.80;3.50;;;19.10;91.00;;;;;;5093631;28;20056;-78
2023/09/13 07:03:14;;;;;;;8.15;4.22;;;19.20;91.00;;;;;;5092098;28;20051;-78
2023/09/13 07:05:39;;;;;;;6.38;3.55;;;19.20;90.90;;;;;;5090548;28;20541;-78
2023/09/13 07:08:05;;;;;;;4.28;2.47;;;19.20;90.80;;;;;;5088474;28;20040;-82
2023/09/13 08:02:13;;;;;;;;;;;17.40;90.80;;;;;;4877386;29;20247;-79
2023/09/13 08:04:39;;;;;;;0.22;0.22;;;17.40;90.90;;;;;;4873350;29;19919;-77
2023/09/13 08:11:03;;;;;;;;;;;17.40;90.80;;;;;;4819796;29;20153;-79
2023/09/13 08:13:32;;;;;;;0.30;0.20;;;17.30;90.80;;;;;;4821643;29;20423;-78
2023/09/13 08:16:03;;;;;;;0.55;0.30;;;17.30;90.70;;;;;;4792970;29;20046;-80
2023/09/13 08:18:35;;;;;;;0.40;0.40;;;17.30;90.70;;;;;;4807685;29;20050;-80
2023/09/13 08:21:11;;;;;;;0.40;0.30;;;17.30;90.70;;;;;;4809332;29;20133;-78
2023/09/13 08:31:03;;;;;;;0.47;0.30;;;17.30;90.60;;;;;;4730515;30;20083;-80
2023/09/13 08:33:34;;;;;;;0.63;0.35;;;17.20;90.80;;;;;;4718873;30;20060;-79
2023/09/13 09:08:19;;;;;;;0.38;0.38;;;17.40;90.20;;;;;;6198398;22;20128;-81
2023/09/13 09:10:57;;;;;;;0.40;0.40;;;17.60;90.00;;;;;;6194507;23;20020;-80
2023/09/13 09:23:45;;;;;;;0.95;0.45;;;17.90;88.70;;;;;;6075713;23;19916;-78
2023/09/13 09:26:28;;;;;;;0.80;0.30;;;18.00;89.00;;;;;;6025636;23;20046;-78
2023/09/13 09:29:11;;;;;;;0.35;0.25;;;18.00;88.60;;;;;;5967412;24;20024;-80
2023/09/13 09:31:39;;;;;;;0.60;0.40;;;18.10;88.60;;;;;;5987702;23;20111;-80
2023/09/13 09:38:03;;;;;;;0.63;0.40;;;18.30;88.10;;;;;;5824204;24;20048;-78
2023/09/13 09:40:40;;;;;;;0.68;0.30;;;18.20;87.70;;;;;;5834925;24;20019;-78
2023/09/13 09:43:13;;;;;;;0.65;0.45;;;18.30;87.50;;;;;;5807438;24;20396;-77
2023/09/13 09:45:53;;;;;;;0.55;0.40;;;18.30;87.30;;;;;;5831946;24;20079;-77
2023/09/13 09:48:26;;;;;;;0.30;0.30;;;18.40;87.30;;;;;;5831028;24;20079;-79
2023/09/13 09:50:55;;;;;;;0.38;0.38;;;18.50;87.20;;;;;;5884743;24;20455;-77
2023/09/13 09:53:24;;;;;;;0.40;0.40;;;18.50;87.10;;;;;;5881657;24;20017;-78
2023/09/13 09:55:52;;;;;;;0.50;0.43;;;18.60;87.00;;;;;;5882521;24;20022;-76
2023/09/13 09:58:29;;;;;;;0.50;0.40;;;18.60;86.80;;;;;;5876416;24;20101;-77
2023/09/13 10:01:38;;;;;;;0.40;0.40;;;18.70;86.60;;;;;;5874342;24;20025;-79
2023/09/13 10:04:16;;;;;;;0.50;0.40;;;18.90;86.30;;;;;;5816178;24;20026;-79
2023/09/13 10:06:57;;;;;;;0.40;0.40;;;19.00;86.00;;;;;;5872227;23;20107;-75
2023/09/13 10:09:23;;;;;;;1.45;0.50;;;19.00;85.70;;;;;;6008641;23;20024;-73
2023/09/13 10:11:57;;;;;;;0.40;0.30;;;19.00;85.60;;;;;;5998085;23;20097;-75
2023/09/13 10:14:29;;;;;;;0.28;0.28;;;19.00;85.50;;;;;;6069685;23;20014;-76
2023/09/13 10:16:55;;;;;;;0.90;0.55;;;19.00;85.50;;;;;;6069631;23;20022;-75
2023/09/13 10:19:25;;;;;;;0.38;0.38;;;19.00;85.40;;;;;;6070536;23;20021;-75
2023/09/13 10:21:51;;;;;;;0.73;0.50;;;19.10;85.20;;;;;;6036232;23;20015;-76
2023/09/13 10:24:20;;;;;;;0.45;0.40;;;19.10;85.20;;;;;;6014434;23;20154;-76
2023/09/13 10:26:46;;;;;;;0.35;0.35;;;19.10;85.20;;;;;;6093848;23;20022;-77
2023/09/13 10:29:20;;;;;;;1.05;0.50;;;19.20;85.10;;;;;;6113039;23;20026;-76
2023/09/13 10:31:50;;;;;;;1.83;0.60;;;19.20;85.00;;;;;;6123847;23;20502;-75
2023/09/13 10:34:23;;;;;;;0.40;0.40;;;19.20;85.00;;;;;;6123435;23;20089;-76
2023/09/13 10:37:03;;;;;;;0.68;0.52;;;19.10;84.80;;;;;;6123087;23;20109;-76
2023/09/13 10:39:32;;;;;;;1.40;0.60;;;19.10;84.90;;;;;;6123251;23;20055;-76
2023/09/13 10:42:07;;;;;;;0.52;0.50;;;19.20;85.00;;;;;;6123108;23;20017;-75
2023/09/13 10:44:35;;;;;;;2.08;0.70;;;19.30;84.60;;;;;;6120104;23;20020;-76
2023/09/13 10:47:03;;;;;;;0.73;0.57;;;19.40;84.10;;;;;;6123284;23;20331;-76
2023/09/13 10:49:29;;;;;;;0.50;0.50;;;19.40;83.80;;;;;;6122954;23;20759;-76
2023/09/13 10:51:57;;;;;;;1.15;0.82;;;19.40;83.70;;;;;;6131214;23;20343;-76
2023/09/13 10:54:24;;;;;;;1.20;0.60;;;19.40;83.70;;;;;;6158945;23;20017;-76
2023/09/13 10:56:50;;;;;;;1.45;0.70;;;19.30;83.80;;;;;;6183309;23;20464;-76
2023/09/13 10:59:18;;;;;;;1.63;0.77;;;19.40;83.90;;;;;;6185600;23;20017;-76
2023/09/13 11:01:46;;;;;;;2.72;0.63;;;19.40;83.70;;;;;;6155824;23;20010;-76
2023/09/13 11:04:14;;;;;;;0.63;0.50;;;19.30;83.60;;;;;;6183661;23;20479;-76
2023/09/13 11:06:42;;;;;;;1.17;0.70;;;19.40;83.70;;;;;;6184828;23;20019;-76
2023/09/13 11:09:16;;;;;;;0.82;0.63;;;19.40;83.70;;;;;;6185131;23;20013;-76
2023/09/13 11:11:47;;;;;;;0.77;0.60;;;19.40;83.70;;;;;;6183815;23;20024;-75
2023/09/13 11:14:17;;;;;;;2.25;0.80;;;19.40;83.60;;;;;;6183201;23;20507;-77
2023/09/13 11:16:45;;;;;;;1.33;0.60;;;19.50;83.40;;;;;;6159363;23;20099;-76
2023/09/13 11:19:13;;;;;;;0.55;0.52;;;19.50;83.20;;;;;;6158256;23;20021;-76
2023/09/13 11:21:52;;;;;;;1.05;0.60;;;19.60;83.10;;;;;;6185621;23;20443;-75
2023/09/13 11:24:40;;;;;;;1.00;0.73;;;19.60;82.80;;;;;;6183309;23;20099;-76
2023/09/13 11:27:13;;;;;;;0.68;0.50;;;19.60;82.80;;;;;;6185119;23;20009;-76
2023/09/13 11:29:42;;;;;;;0.50;0.50;;;19.60;82.70;;;;;;6159213;23;20039;-76
2023/09/13 11:32:14;;;;;;;0.63;0.57;;;19.70;82.80;;;;;;6184719;23;20103;-76
2023/09/13 11:34:40;;;;;;;1.75;0.70;;;19.60;82.70;;;;;;6185408;23;20298;-76
2023/09/13 11:37:08;;;;;;;1.17;0.70;;;19.60;82.60;;;;;;6158720;23;20422;-76
2023/09/13 11:39:34;;;;;;;1.35;0.63;;;19.60;82.50;;;;;;6183255;23;21916;-76
2023/09/13 11:42:03;;;;;;;1.15;0.70;;;19.60;82.60;;;;;;6184882;23;20009;-76
2023/09/13 11:44:29;;;;;;;1.05;0.55;;;19.60;82.60;;;;;;6183300;23;20024;-75
2023/09/13 11:46:55;;;;;;;0.55;0.55;;;19.60;82.40;;;;;;6158435;23;20041;-76
2023/09/13 11:49:23;;;;;;;0.88;0.68;;;19.60;82.20;;;;;;6184786;23;20509;-76
2023/09/13 11:51:57;;;;;;;0.55;0.55;;;19.60;82.30;;;;;;6158604;23;20009;-76
2023/09/13 11:54:25;;;;;;;0.60;0.50;;;19.60;82.30;;;;;;6184839;23;20012;-76
2023/09/13 11:56:53;;;;;;;0.70;0.52;;;19.50;82.40;;;;;;6155029;23;20429;-76
2023/09/13 11:59:34;;;;;;;0.90;0.43;;;19.60;82.40;;;;;;6184623;23;20092;-76
2023/09/13 12:02:00;;;;;;;0.77;0.60;;;19.70;82.70;;;;;;6184573;23;20005;-76
2023/09/13 12:04:26;;;;;;;0.40;0.40;;;19.70;81.90;;;;;;6184549;23;20052;-76
2023/09/13 12:06:54;;;;;;;1.35;0.50;;;19.70;81.80;;;;;;6183815;23;20097;-75
2023/09/13 12:09:21;;;;;;;1.00;0.70;;;19.70;81.80;;;;;;6184825;23;20067;-76
2023/09/13 12:11:50;;;;;;;0.50;0.50;;;19.80;81.70;;;;;;6185293;23;20147;-76
2023/09/13 12:14:18;;;;;;;1.05;0.60;;;19.70;81.70;;;;;;6158568;23;20433;-76
2023/09/13 12:16:48;;;;;;;0.40;0.40;;;19.70;81.80;;;;;;6158382;23;20067;-76
2023/09/13 12:19:14;;;;;;;0.80;0.60;;;19.70;81.80;;;;;;6184627;23;20005;-76
2023/09/13 12:21:47;;;;;;;0.90;0.55;;;19.70;81.70;;;;;;6182681;23;20358;-76
2023/09/13 12:24:23;;;;;;;0.60;0.60;;;19.60;81.50;;;;;;6183136;23;20430;-75
2023/09/13 12:26:53;;;;;;;1.35;0.47;;;19.70;81.50;;;;;;6184678;23;20063;-76
2023/09/13 12:29:18;;;;;;;0.77;0.60;;;19.80;81.40;;;;;;6182721;23;20036;-75
2023/09/13 12:31:45;;;;;;;0.45;0.45;;;19.90;81.10;;;;;;6184127;23;20437;-76
2023/09/13 12:34:11;;;;;;;1.20;0.63;;;19.90;80.80;;;;;;6184731;23;20442;-76
2023/09/13 12:36:38;;;;;;;0.65;0.50;;;19.90;80.90;;;;;;6157998;23;20013;-76
2023/09/13 12:39:12;;;;;;;1.25;0.50;;;19.80;81.10;;;;;;6182916;23;20019;-76
2023/09/13 12:41:38;;;;;;;1.23;0.70;;;19.70;81.20;;;;;;6184545;23;20009;-76
2023/09/13 12:44:04;;;;;;;1.00;0.50;;;19.60;81.60;;;;;;6184508;23;20036;-77
2023/09/13 12:46:30;;;;;;;0.85;0.75;;;19.40;81.70;;;;;;6154580;23;20062;-75
2023/09/13 12:48:57;;;;;;;0.50;0.50;;;19.30;82.10;;;;;;6158594;23;20044;-76
2023/09/13 12:51:28;;;;;;;1.80;0.68;;;19.20;82.50;;;;;;6182470;23;20395;-76
2023/09/13 12:53:55;;;;;;;1.08;0.60;;;19.10;82.70;;;;;;6158626;23;20408;-76
2023/09/13 12:56:21;;;;;;;1.02;0.73;;;19.00;82.80;;;;;;6182659;23;20091;-76
2023/09/13 12:58:54;;;;;;;0.50;0.50;;;19.00;82.90;;;;;;6183151;23;20360;-76
2023/09/13 13:01:20;;;;;;;0.68;0.68;;;18.90;82.90;;;;;;6157789;23;20100;-76
2023/09/13 13:04:06;;;;;;;1.02;0.50;;;18.90;83.00;;;;;;6182917;23;20052;-75
2023/09/13 13:06:54;;;;;;;0.75;0.60;;;18.90;82.90;;;;;;6151393;23;20014;-76
2023/09/13 13:09:40;;;;;;;0.95;0.50;;;19.00;82.80;;;;;;6103097;23;20013;-76
2023/09/13 13:20:14;;;;;;;0.40;0.40;;;19.30;82.40;;;;;;5884054;24;20383;-76
2023/09/13 13:23:23;;;;;;;0.73;0.40;;;19.40;82.10;;;;;;5778869;24;20019;-77
2023/09/13 13:26:28;;;;;;;0.30;0.30;;;19.30;82.00;;;;;;5765318;24;20126;-77
2023/09/13 13:29:05;;;;;;;0.93;0.43;;;19.40;81.90;;;;;;5714561;25;20107;-76
2023/09/13 13:46:39;;;;;;;0.82;0.40;;;19.50;81.80;;;;;;5647030;25;20050;-79
2023/09/13 13:49:16;;;;;;;0.40;0.40;;;19.50;81.70;;;;;;5637226;25;20018;-76
2023/09/13 13:58:13;;;;;;;;;;;19.40;81.70;;;;;;5689438;25;20140;-79
2023/09/13 14:04:00;;;;;;;0.30;0.30;;;19.50;81.80;;;;;;5763044;24;20027;-77
2023/09/13 14:19:02;;;;;;;0.63;0.50;;;19.60;81.00;;;;;;5583961;25;20062;-76
2023/09/13 14:21:07;;;;;;;0.70;0.50;;;19.70;81.00;;;;;;5481292;26;20032;-77
2023/09/13 14:24:03;;;;;;;0.55;0.40;;;19.70;80.90;;;;;;5483531;26;20100;-76
2023/09/13 14:29:55;;;;;;;0.30;0.30;;;19.70;80.60;;;;;;5553578;25;20030;-77
2023/09/13 14:45:37;;;;;;;0.50;0.50;;;19.90;80.10;;;;;;5618094;25;20151;-76
2023/09/13 14:48:10;;;;;;;0.98;0.50;;;19.90;80.10;;;;;;5650443;25;20048;-76
2023/09/13 14:54:48;;;;;;;0.55;0.40;;;19.80;80.30;;;;;;5789752;24;20037;-78
2023/09/13 15:04:54;;;;;;;0.50;0.50;;;19.70;80.70;;;;;;5743972;24;20370;-78
2023/09/13 15:17:58;;;;;;;0.52;0.45;;;19.70;80.20;;;;;;5634984;25;20125;-79
2023/09/13 15:50:32;;;;;;;0.50;0.43;;;19.60;80.00;;;;;;5726316;25;20024;-77
2023/09/13 16:22:44;;;;;;;0.80;0.52;;;19.30;80.30;;;;;;5645734;25;20081;-79
2023/09/13 16:25:12;;;;;;;0.40;0.40;;;19.20;80.20;;;;;;5599319;25;20461;-76
2023/09/13 16:27:38;;;;;;;0.43;0.40;;;19.30;80.20;;;;;;5605066;25;20022;-75
2023/09/13 16:30:06;;;;;;;0.98;0.50;;;19.30;80.10;;;;;;5612057;25;20026;-75
2023/09/13 16:32:32;;;;;;;0.70;0.70;;;19.40;79.90;;;;;;5611912;25;20019;-76
2023/09/13 16:34:58;;;;;;;0.70;0.63;;;19.50;79.70;;;;;;5611460;25;20093;-75
2023/09/13 16:37:24;;;;;;;0.60;0.60;;;19.40;79.40;;;;;;5611523;25;20085;-75
2023/09/13 16:39:50;;;;;;;0.50;0.50;;;19.40;79.10;;;;;;5611987;25;20076;-75
2023/09/13 16:42:16;;;;;;;0.65;0.57;;;19.50;79.00;;;;;;5621282;25;20026;-75
2023/09/13 16:44:42;;;;;;;0.40;0.40;;;19.50;78.80;;;;;;5636457;25;20039;-76
2023/09/13 16:47:08;;;;;;;0.80;0.52;;;19.60;78.80;;;;;;5670617;25;20068;-76
2023/09/13 16:49:34;;;;;;;0.85;0.80;;;19.60;78.80;;;;;;5828663;24;20084;-76
2023/09/13 16:51:59;;;;;;;1.13;0.80;;;19.50;78.70;;;;;;5874481;24;20018;-75
2023/09/13 16:54:27;;;;;;;0.80;0.60;;;19.50;78.70;;;;;;5875825;24;20014;-75
2023/09/13 16:56:53;;;;;;;0.82;0.50;;;19.40;78.70;;;;;;6037924;23;20017;-75
2023/09/13 16:59:20;;;;;;;1.10;0.70;;;19.40;78.90;;;;;;6190982;23;20009;-75
2023/09/13 17:01:46;;;;;;;0.60;0.50;;;19.30;79.10;;;;;;6187260;23;20071;-75
2023/09/13 17:04:14;;;;;;;0.68;0.68;;;19.20;79.20;;;;;;6184216;23;20036;-75
2023/09/13 17:06:41;;;;;;;0.60;0.60;;;19.20;79.40;;;;;;6133748;23;20475;-75
2023/09/13 17:09:07;;;;;;;1.40;0.70;;;19.20;79.50;;;;;;6158356;23;20099;-75